Time;durP1;ratioP1;P1;durP2;ratioP2;P2;SDS_P1;SDS_P2;PMS_P1;PMS_P2;Temp;Humidity;BMP_temperature;BMP_pressure;BME280_temperature;BME280_humidity;BME280_pressure;Samples;Min_cycle;Max_cycle;Signal;HPM_P1;HPM_P2
2021/04/05 00:02:23;;;;;;;25.10;11.52;;;5.90;99.90;;;;;;5032288;28;20398;-87
2021/04/05 00:04:49;;;;;;;34.67;11.63;;;5.90;99.90;;;;;;5050625;28;20045;-87
2021/04/05 00:07:17;;;;;;;30.02;11.52;;;5.90;99.90;;;;;;5033211;28;20043;-87
2021/04/05 00:09:45;;;;;;;26.35;11.27;;;5.90;99.90;;;;;;5048590;28;20490;-88
2021/04/05 00:12:12;;;;;;;28.92;11.95;;;5.90;99.90;;;;;;5031367;28;20045;-88
2021/04/05 00:14:41;;;;;;;27.45;12.07;;;5.90;99.90;;;;;;5026362;28;20052;-87
2021/04/05 00:17:07;;;;;;;39.10;12.25;;;5.80;99.90;;;;;;5020346;28;20041;-87
2021/04/05 00:19:37;;;;;;;31.73;11.65;;;5.80;99.90;;;;;;5033546;28;20060;-87
2021/04/05 00:22:04;;;;;;;34.45;11.80;;;5.80;99.90;;;;;;5042579;28;20053;-88
2021/04/05 00:24:30;;;;;;;34.60;12.38;;;5.80;99.90;;;;;;5026504;28;20057;-87
2021/04/05 00:26:57;;;;;;;28.40;11.38;;;5.80;99.90;;;;;;5032731;28;20402;-87
2021/04/05 00:29:23;;;;;;;28.00;10.68;;;5.80;99.90;;;;;;5030185;28;20053;-87
2021/04/05 00:31:50;;;;;;;29.90;11.38;;;5.80;99.90;;;;;;5032872;28;20052;-87
2021/04/05 00:34:16;;;;;;;32.83;11.40;;;5.70;99.90;;;;;;5031744;28;20052;-87
2021/04/05 00:36:43;;;;;;;30.27;11.00;;;5.70;99.90;;;;;;5025502;28;20057;-87
2021/04/05 00:39:10;;;;;;;32.83;11.02;;;5.70;99.90;;;;;;5024145;28;20045;-87
2021/04/05 00:41:37;;;;;;;22.67;9.80;;;5.70;99.90;;;;;;5032229;28;20063;-88
2021/04/05 00:44:03;;;;;;;28.85;12.25;;;5.60;99.90;;;;;;5029398;28;20042;-88
2021/04/05 00:46:30;;;;;;;27.40;11.13;;;5.60;99.90;;;;;;5032977;28;20041;-87
2021/04/05 00:48:57;;;;;;;29.98;11.73;;;5.50;99.90;;;;;;5047738;28;20385;-87
2021/04/05 00:51:26;;;;;;;28.02;11.60;;;5.50;99.90;;;;;;5028979;28;20049;-87
2021/04/05 00:53:54;;;;;;;31.00;11.02;;;5.50;99.90;;;;;;5027983;28;20044;-87
2021/04/05 00:56:25;;;;;;;27.33;10.75;;;5.40;99.90;;;;;;5022295;28;20045;-87
2021/04/05 00:58:53;;;;;;;34.10;12.32;;;5.40;99.90;;;;;;5029569;28;20051;-86
2021/04/05 01:01:25;;;;;;;33.45;11.43;;;5.40;99.90;;;;;;5023784;28;20099;-87
2021/04/05 01:03:53;;;;;;;30.75;10.88;;;5.40;99.90;;;;;;5028040;28;20060;-87
2021/04/05 01:06:24;;;;;;;24.35;12.15;;;5.30;99.90;;;;;;5045790;28;20044;-88
2021/04/05 01:08:51;;;;;;;36.20;12.05;;;5.40;99.90;;;;;;5029061;28;20152;-87
2021/04/05 01:11:20;;;;;;;31.33;11.88;;;5.40;99.90;;;;;;5046271;28;20037;-87
2021/04/05 01:13:47;;;;;;;28.55;11.98;;;5.40;99.90;;;;;;5031909;28;20045;-87
2021/04/05 01:16:15;;;;;;;31.00;12.45;;;5.40;99.90;;;;;;5028940;28;20045;-87
2021/04/05 01:18:42;;;;;;;31.45;11.90;;;5.30;99.90;;;;;;5032671;28;20843;-87
2021/04/05 01:21:09;;;;;;;27.45;12.00;;;5.30;99.90;;;;;;5035618;28;20052;-88
2021/04/05 01:23:37;;;;;;;30.00;12.02;;;5.30;99.90;;;;;;5053272;28;20045;-87
2021/04/05 01:26:04;;;;;;;29.50;12.15;;;5.30;99.90;;;;;;5032199;28;20041;-87
2021/04/05 01:28:31;;;;;;;32.70;11.95;;;5.30;99.90;;;;;;5035619;28;20040;-87
2021/04/05 01:31:01;;;;;;;31.05;12.77;;;5.30;99.90;;;;;;5034688;28;20098;-87
2021/04/05 01:33:32;;;;;;;;;;;5.20;99.90;;;;;;5031423;28;20082;-88
2021/04/05 01:36:11;;;;;;;32.28;11.73;;;5.20;99.90;;;;;;5033129;28;20011;-87
2021/04/05 01:38:52;;;;;;;37.53;12.13;;;5.10;99.90;;;;;;5034290;28;20051;-87
2021/04/05 01:41:44;;;;;;;36.05;12.40;;;5.10;99.90;;;;;;5017910;28;20041;-87
2021/04/05 01:44:11;;;;;;;28.38;12.18;;;5.10;99.90;;;;;;5034160;28;20041;-87
2021/04/05 01:46:38;;;;;;;32.25;12.82;;;5.10;99.90;;;;;;5033384;28;20062;-87
2021/04/05 01:49:04;;;;;;;35.60;13.10;;;5.10;99.90;;;;;;5032763;28;20049;-87
2021/04/05 01:51:31;;;;;;;34.30;12.50;;;5.20;99.90;;;;;;5050041;28;20345;-87
2021/04/05 01:53:57;;;;;;;32.72;11.43;;;5.10;99.90;;;;;;5035470;28;20044;-87
2021/04/05 01:56:24;;;;;;;30.27;12.32;;;5.10;99.90;;;;;;5030892;28;20120;-86
2021/04/05 01:58:53;;;;;;;33.65;13.25;;;5.10;99.90;;;;;;5031213;28;20048;-87
2021/04/05 02:01:32;;;;;;;41.28;13.75;;;5.10;99.90;;;;;;5031300;28;20254;-87
2021/04/05 02:04:02;;;;;;;29.70;13.05;;;5.10;99.90;;;;;;5032773;28;20212;-87
2021/04/05 02:06:35;;;;;;;39.90;13.15;;;5.10;99.90;;;;;;5031289;28;20033;-87
2021/04/05 02:09:05;;;;;;;43.25;13.75;;;5.10;99.90;;;;;;5021347;28;20124;-87
2021/04/05 02:11:37;;;;;;;33.72;14.00;;;5.10;99.90;;;;;;5033390;28;20401;-86
2021/04/05 02:14:07;;;;;;;39.38;12.93;;;5.10;99.90;;;;;;5031892;28;20056;-87
2021/04/05 02:16:33;;;;;;;46.70;14.70;;;5.10;99.90;;;;;;5022805;28;20041;-87
2021/04/05 02:19:01;;;;;;;33.47;14.07;;;5.10;99.90;;;;;;5036628;28;20483;-87
2021/04/05 02:21:29;;;;;;;36.95;14.45;;;5.20;99.90;;;;;;5033540;28;20047;-87
2021/04/05 02:24:01;;;;;;;34.67;13.88;;;5.30;99.90;;;;;;5037506;28;20474;-88
2021/04/05 02:26:31;;;;;;;34.35;15.57;;;5.30;99.90;;;;;;5032838;28;20048;-87
2021/04/05 02:29:00;;;;;;;40.63;15.32;;;5.40;99.90;;;;;;5032600;28;20049;-87
2021/04/05 02:31:31;;;;;;;36.08;15.32;;;5.60;99.90;;;;;;5035862;28;20053;-87
2021/04/05 02:34:05;;;;;;;42.42;17.17;;;5.70;99.90;;;;;;5034710;28;20049;-87
2021/04/05 02:36:33;;;;;;;36.50;15.45;;;5.80;99.90;;;;;;5034768;28;20052;-87
2021/04/05 02:39:04;;;;;;;;;;;5.90;99.90;;;;;;5037324;28;20498;-87
2021/04/05 02:41:33;;;;;;;36.80;14.32;;;6.10;99.90;;;;;;5035366;28;19927;-87
2021/04/05 02:44:01;;;;;;;46.97;14.48;;;6.10;99.90;;;;;;5032808;28;20075;-87
2021/04/05 02:46:34;;;;;;;43.30;14.23;;;6.20;99.90;;;;;;5033848;28;20067;-87
2021/04/05 02:49:04;;;;;;;36.33;15.20;;;6.30;99.90;;;;;;5033528;28;20203;-87
2021/04/05 02:51:31;;;;;;;34.50;14.02;;;6.30;99.90;;;;;;5033344;28;20052;-87
2021/04/05 02:54:00;;;;;;;38.95;13.02;;;6.40;99.90;;;;;;5032288;28;20037;-88
2021/04/05 02:56:28;;;;;;;30.23;14.15;;;6.50;99.90;;;;;;5032576;28;20044;-86
2021/04/05 02:58:57;;;;;;;27.75;12.77;;;6.50;99.90;;;;;;5030547;28;20041;-87
2021/04/05 03:01:27;;;;;;;34.42;13.18;;;6.50;99.90;;;;;;5022832;28;20045;-88
2021/04/05 03:03:56;;;;;;;32.28;12.38;;;6.60;99.90;;;;;;5030971;28;20126;-87
2021/04/05 03:06:23;;;;;;;32.97;12.38;;;6.60;99.90;;;;;;5029456;28;20478;-87
2021/04/05 03:08:50;;;;;;;32.95;11.20;;;6.70;99.90;;;;;;5033155;28;20085;-87
2021/04/05 03:11:20;;;;;;;29.63;10.80;;;6.80;99.90;;;;;;5030184;28;20376;-87
2021/04/05 03:13:48;;;;;;;29.88;12.00;;;6.80;99.90;;;;;;5032286;28;20099;-87
2021/04/05 03:16:26;;;;;;;29.88;10.65;;;6.80;99.90;;;;;;5034318;28;20053;-87
2021/04/05 03:18:55;;;;;;;25.90;10.90;;;6.90;99.90;;;;;;5036977;28;20053;-87
2021/04/05 03:21:22;;;;;;;;;;;7.00;99.90;;;;;;5032547;28;20048;-87
2021/04/05 03:23:49;;;;;;;30.80;10.50;;;7.00;99.90;;;;;;5032710;28;19921;-87
2021/04/05 03:26:16;;;;;;;25.50;10.32;;;7.00;99.90;;;;;;5030018;28;20049;-86
2021/04/05 03:28:43;;;;;;;27.35;10.57;;;7.00;99.90;;;;;;5034204;28;20037;-86
2021/04/05 03:31:14;;;;;;;22.02;10.05;;;7.10;99.90;;;;;;5031705;28;20056;-87
2021/04/05 03:33:45;;;;;;;27.55;10.32;;;7.10;99.90;;;;;;5030402;28;20064;-87
2021/04/05 03:36:25;;;;;;;25.95;9.15;;;7.10;99.90;;;;;;5031595;28;20049;-87
2021/04/05 03:38:52;;;;;;;24.52;9.68;;;7.10;99.90;;;;;;5044259;28;20052;-87
2021/04/05 03:41:33;;;;;;;23.63;9.75;;;7.10;99.90;;;;;;5030745;28;20053;-87
2021/04/05 03:44:26;;;;;;;20.70;9.23;;;7.20;99.90;;;;;;5025754;28;20084;-87
2021/04/05 03:46:59;;;;;;;26.67;9.75;;;7.20;99.90;;;;;;5029291;28;20056;-87
2021/04/05 03:49:43;;;;;;;22.55;9.30;;;7.20;99.90;;;;;;5031932;28;20123;-87
2021/04/05 03:52:47;;;;;;;29.50;10.55;;;7.20;99.90;;;;;;5029688;28;20053;-87
2021/04/05 03:55:15;;;;;;;32.08;8.13;;;7.20;99.90;;;;;;4953771;28;20054;-87
2021/04/05 03:57:45;;;;;;;23.33;9.38;;;7.20;99.90;;;;;;4944374;29;20051;-87
2021/04/05 04:00:15;;;;;;;23.17;8.77;;;7.30;99.90;;;;;;4936468;28;20039;-87
2021/04/05 04:02:46;;;;;;;26.35;8.23;;;7.30;99.90;;;;;;4939071;28;20338;-87
2021/04/05 04:05:21;;;;;;;33.08;9.23;;;7.30;99.90;;;;;;4932932;28;20145;-87
2021/04/05 04:08:37;;;;;;;24.77;8.52;;;7.30;99.90;;;;;;4933737;29;20089;-87
2021/04/05 04:10:44;;;;;;;24.23;8.20;;;7.30;99.90;;;;;;4940466;28;20051;-87
2021/04/05 04:13:12;;;;;;;20.58;8.10;;;7.30;99.90;;;;;;4932504;28;20397;-87
2021/04/05 04:15:40;;;;;;;24.30;9.75;;;7.30;99.90;;;;;;4936172;29;20070;-87
2021/04/05 04:18:07;;;;;;;25.47;8.43;;;7.30;99.90;;;;;;4933195;29;20077;-87
2021/04/05 04:20:34;;;;;;;25.58;8.70;;;7.20;99.90;;;;;;4932227;29;20062;-88
2021/04/05 04:23:01;;;;;;;31.00;9.23;;;7.20;99.90;;;;;;4936127;28;20135;-87
2021/04/05 04:25:28;;;;;;;29.17;9.15;;;7.20;99.90;;;;;;4932450;28;20043;-87
2021/04/05 04:27:54;;;;;;;27.67;9.30;;;7.20;99.90;;;;;;4948671;28;20051;-87
2021/04/05 04:30:32;;;;;;;33.10;9.80;;;7.20;99.90;;;;;;4974888;28;20119;-87
2021/04/05 04:33:06;;;;;;;24.27;9.85;;;7.20;99.90;;;;;;5027331;28;20053;-87
2021/04/05 04:35:35;;;;;;;28.35;9.48;;;7.20;99.90;;;;;;5024614;28;20049;-87
2021/04/05 04:38:03;;;;;;;28.98;10.65;;;7.20;99.90;;;;;;5031851;28;20394;-87
2021/04/05 04:40:31;;;;;;;25.08;9.98;;;7.20;99.90;;;;;;5033620;28;20052;-87
2021/04/05 04:42:59;;;;;;;33.83;10.10;;;7.30;99.90;;;;;;5029179;28;20049;-87
2021/04/05 04:45:27;;;;;;;19.40;9.73;;;7.30;99.90;;;;;;5030011;28;20056;-87
2021/04/05 04:47:57;;;;;;;27.05;10.38;;;7.30;99.90;;;;;;5030010;28;20040;-86
2021/04/05 04:50:27;;;;;;;19.95;9.30;;;7.30;99.90;;;;;;5053554;28;20453;-87
2021/04/05 04:52:54;;;;;;;23.85;10.07;;;7.40;99.90;;;;;;5042384;28;20127;-87
2021/04/05 04:55:22;;;;;;;25.35;9.98;;;7.40;99.90;;;;;;5037394;28;20049;-87
2021/04/05 04:57:49;;;;;;;22.60;9.60;;;7.40;99.90;;;;;;5033557;28;20053;-87
2021/04/05 05:00:17;;;;;;;22.52;9.15;;;7.40;99.90;;;;;;5031341;28;20053;-87
2021/04/05 05:02:45;;;;;;;26.17;9.95;;;7.40;99.90;;;;;;5034728;28;20397;-88
2021/04/05 05:05:13;;;;;;;20.63;9.20;;;7.30;99.90;;;;;;5050485;28;20505;-87
2021/04/05 05:07:41;;;;;;;23.67;9.85;;;7.30;99.90;;;;;;5034838;28;20280;-87
2021/04/05 05:10:12;;;;;;;23.13;9.52;;;7.30;99.90;;;;;;5031961;28;20045;-87
2021/04/05 05:12:41;;;;;;;20.95;10.23;;;7.20;99.90;;;;;;5052974;28;20056;-87
2021/04/05 05:15:12;;;;;;;21.92;10.18;;;7.20;99.90;;;;;;5035436;28;20041;-87
2021/04/05 05:17:47;;;;;;;24.50;10.10;;;7.20;99.90;;;;;;5031687;28;20072;-87
2021/04/05 05:20:16;;;;;;;27.85;10.55;;;7.20;99.90;;;;;;5030243;28;20045;-87
2021/04/05 05:22:53;;;;;;;21.17;9.25;;;7.20;99.90;;;;;;5029435;28;20497;-87
2021/04/05 05:25:22;;;;;;;20.70;9.75;;;7.20;99.90;;;;;;5046353;28;20060;-87
2021/04/05 05:27:53;;;;;;;21.92;10.18;;;7.30;99.90;;;;;;5031606;28;20057;-88
2021/04/05 05:30:21;;;;;;;23.13;10.05;;;7.30;99.90;;;;;;5031480;28;20123;-87
2021/04/05 05:32:49;;;;;;;19.52;9.55;;;7.30;99.90;;;;;;5035019;28;20128;-87
2021/04/05 05:35:17;;;;;;;21.73;10.25;;;7.40;99.90;;;;;;5031153;28;20041;-87
2021/04/05 05:37:47;;;;;;;20.52;9.10;;;7.40;99.90;;;;;;5035105;28;20053;-88
2021/04/05 05:40:27;;;;;;;21.38;9.80;;;7.40;99.90;;;;;;5050980;28;20048;-88
2021/04/05 05:42:58;;;;;;;26.85;9.30;;;7.50;99.90;;;;;;5022966;28;20099;-88
2021/04/05 05:45:30;;;;;;;23.92;9.98;;;7.50;99.90;;;;;;5031899;28;20037;-88
2021/04/05 05:48:21;;;;;;;25.08;9.93;;;7.60;99.90;;;;;;5034936;28;20091;-87
2021/04/05 05:51:25;;;;;;;25.05;9.65;;;7.60;99.90;;;;;;5033263;28;20053;-88
2021/04/05 05:54:46;;;;;;;33.00;9.80;;;7.60;99.90;;;;;;5034317;28;20049;-88
2021/04/05 05:57:38;;;;;;;26.40;10.15;;;7.70;99.90;;;;;;4950391;28;20043;-88
2021/04/05 06:00:54;;;;;;;21.27;9.68;;;7.70;99.90;;;;;;4919042;29;20103;-88
2021/04/05 06:03:34;;;;;;;23.55;9.30;;;7.70;99.90;;;;;;4889884;29;20048;-87
2021/04/05 06:06:13;;;;;;;20.42;9.68;;;7.70;99.90;;;;;;4892369;29;20197;-88
2021/04/05 06:09:04;;;;;;;26.35;9.63;;;7.70;99.90;;;;;;4891590;29;20512;-87
2021/04/05 06:11:42;;;;;;;24.25;9.80;;;7.80;99.90;;;;;;4893326;29;20048;-88
2021/04/05 06:14:34;;;;;;;24.13;9.93;;;7.80;99.90;;;;;;4885897;29;20053;-88
2021/04/05 06:17:12;;;;;;;23.48;9.40;;;7.80;99.90;;;;;;4894453;29;20570;-88
2021/04/05 06:19:59;;;;;;;20.63;9.37;;;7.90;99.90;;;;;;4871951;29;20181;-87
2021/04/05 06:22:41;;;;;;;16.92;9.55;;;7.90;99.90;;;;;;4898344;29;20052;-87
2021/04/05 06:25:25;;;;;;;17.13;9.23;;;7.90;99.90;;;;;;4892568;29;20076;-89
2021/04/05 06:27:54;;;;;;;22.55;9.75;;;8.00;99.90;;;;;;4896488;29;20058;-88
2021/04/05 06:30:42;;;;;;;26.63;9.80;;;8.00;99.90;;;;;;4900203;29;20268;-88
2021/04/05 06:33:17;;;;;;;22.35;9.55;;;8.00;99.90;;;;;;4937304;29;20050;-88
2021/04/05 06:36:12;;;;;;;22.60;10.18;;;8.10;99.90;;;;;;4944569;28;20055;-88
2021/04/05 06:38:55;;;;;;;21.33;9.27;;;8.10;99.90;;;;;;4922665;29;20047;-88
2021/04/05 06:41:36;;;;;;;24.80;10.48;;;8.20;99.90;;;;;;5007096;28;20148;-88
2021/04/05 06:44:22;;;;;;;21.77;10.18;;;8.20;99.90;;;;;;5033369;28;20067;-88
2021/04/05 06:47:26;;;;;;;20.08;9.07;;;8.30;99.90;;;;;;5048183;28;20441;-88
2021/04/05 06:50:13;;;;;;;17.92;9.13;;;8.30;99.90;;;;;;5046686;28;20056;-88
2021/04/05 06:52:53;;;;;;;14.70;8.85;;;8.40;99.90;;;;;;5033245;28;20055;-87
2021/04/05 06:55:40;;;;;;;17.83;9.30;;;8.50;99.90;;;;;;5044293;28;20090;-88
2021/04/05 06:58:16;;;;;;;20.63;9.23;;;8.60;99.90;;;;;;5047202;28;20479;-88
2021/04/05 07:01:10;;;;;;;14.95;9.32;;;8.70;99.90;;;;;;5028669;28;20049;-87
2021/04/05 07:04:16;;;;;;;14.60;9.05;;;8.70;99.90;;;;;;5031203;28;20056;-87
2021/04/05 07:06:49;;;;;;;20.80;10.20;;;8.80;99.90;;;;;;5031437;28;20119;-88
2021/04/05 07:09:28;;;;;;;19.52;9.82;;;8.90;99.90;;;;;;5031221;28;20037;-86
2021/04/05 07:12:06;;;;;;;20.80;9.73;;;8.90;99.90;;;;;;5030556;28;20052;-88
2021/04/05 07:14:49;;;;;;;17.48;7.97;;;9.00;99.90;;;;;;5029486;28;20055;-88
2021/04/05 07:17:23;;;;;;;17.73;8.30;;;9.10;99.90;;;;;;5016756;28;20471;-88
2021/04/05 07:19:57;;;;;;;16.60;9.05;;;9.20;99.90;;;;;;5028002;28;20042;-88
2021/04/05 07:22:34;;;;;;;13.88;7.90;;;9.30;99.90;;;;;;5029916;28;20055;-88
2021/04/05 07:25:14;;;;;;;15.77;7.90;;;9.40;99.90;;;;;;5026812;28;20045;-87
2021/04/05 07:28:02;;;;;;;11.93;7.35;;;9.40;99.90;;;;;;5020266;28;20049;-87
2021/04/05 07:30:45;;;;;;;17.08;7.25;;;9.50;99.90;;;;;;5021361;28;20120;-88
2021/04/05 07:33:31;;;;;;;16.50;7.22;;;9.60;99.90;;;;;;5022962;28;20056;-88
2021/04/05 07:36:10;;;;;;;19.30;6.90;;;9.60;99.90;;;;;;5027137;28;20049;-87
2021/04/05 07:38:50;;;;;;;13.85;6.43;;;9.70;99.90;;;;;;5021952;28;20091;-88
2021/04/05 07:41:41;;;;;;;14.13;6.85;;;9.70;99.90;;;;;;5025789;28;20757;-88
2021/04/05 07:44:40;;;;;;;14.85;6.25;;;9.80;99.90;;;;;;5032787;28;20041;-88
2021/04/05 07:47:29;;;;;;;14.25;6.50;;;9.90;99.90;;;;;;5025071;28;20558;-88
2021/04/05 07:50:23;;;;;;;17.05;7.00;;;9.90;99.90;;;;;;5016180;28;20052;-87
2021/04/05 07:53:09;;;;;;;12.20;6.47;;;10.00;99.90;;;;;;5021413;28;20067;-88
2021/04/05 07:55:38;;;;;;;15.18;6.53;;;10.00;99.90;;;;;;5013586;28;20042;-86
2021/04/05 07:58:23;;;;;;;;;;;10.00;99.90;;;;;;5023410;28;20041;-88
2021/04/05 08:01:08;;;;;;;11.27;6.30;;;10.00;99.90;;;;;;5024787;28;19921;-87
2021/04/05 08:03:53;;;;;;;12.23;6.45;;;10.10;99.90;;;;;;5022623;28;20052;-88
2021/04/05 08:06:28;;;;;;;11.75;6.70;;;10.10;99.90;;;;;;5020863;28;20041;-87
2021/04/05 08:09:07;;;;;;;12.48;6.20;;;10.10;99.90;;;;;;5017453;28;20050;-87
2021/04/05 08:12:17;;;;;;;14.35;5.60;;;10.10;99.90;;;;;;5027460;28;20050;-88
2021/04/05 08:15:09;;;;;;;15.57;4.75;;;10.10;99.90;;;;;;4926942;28;20070;-87
2021/04/05 08:17:48;;;;;;;10.98;4.35;;;10.10;99.90;;;;;;4933778;28;20528;-87
2021/04/05 08:20:34;;;;;;;11.90;4.43;;;10.10;99.90;;;;;;4944915;28;20042;-86
2021/04/05 08:23:08;;;;;;;16.02;4.47;;;10.10;99.90;;;;;;4961101;28;20551;-87
2021/04/05 08:25:58;;;;;;;11.05;4.82;;;10.20;99.90;;;;;;4959032;28;20047;-88
2021/04/05 08:28:47;;;;;;;11.80;5.03;;;10.20;99.90;;;;;;4955818;28;20058;-87
2021/04/05 08:31:31;;;;;;;15.43;5.28;;;10.20;99.90;;;;;;4967664;28;20146;-87
2021/04/05 08:34:30;;;;;;;14.23;5.22;;;10.20;99.90;;;;;;4950287;28;20058;-87
2021/04/05 08:37:29;;;;;;;13.90;5.10;;;10.20;99.90;;;;;;4950406;28;20681;-87
2021/04/05 08:39:56;;;;;;;;;;;10.20;99.90;;;;;;4946947;28;20074;-87
2021/04/05 08:43:04;;;;;;;10.07;4.38;;;10.20;99.90;;;;;;4954256;28;19931;-87
2021/04/05 08:46:02;;;;;;;15.15;4.25;;;10.20;99.90;;;;;;4958619;28;20046;-88
2021/04/05 08:48:35;;;;;;;12.18;4.90;;;10.20;99.90;;;;;;4928761;29;20051;-88
2021/04/05 08:51:07;;;;;;;11.10;3.47;;;10.20;99.90;;;;;;4942238;28;20054;-88
2021/04/05 08:53:45;;;;;;;12.18;4.00;;;10.20;99.90;;;;;;4967813;28;20514;-88
2021/04/05 08:56:14;;;;;;;10.70;3.50;;;10.20;99.90;;;;;;4959709;28;20045;-88
2021/04/05 08:58:52;;;;;;;14.75;3.17;;;10.20;99.90;;;;;;4965298;28;20081;-87
2021/04/05 09:01:28;;;;;;;10.63;3.47;;;10.20;99.90;;;;;;4968149;28;20173;-87
2021/04/05 09:03:56;;;;;;;9.82;3.22;;;10.30;99.90;;;;;;4964426;28;20103;-87
2021/04/05 09:06:38;;;;;;;14.43;3.45;;;10.20;99.90;;;;;;4958597;28;20519;-87
2021/04/05 09:09:10;;;;;;;14.77;3.67;;;10.10;99.90;;;;;;4960735;28;20498;-87
2021/04/05 09:11:41;;;;;;;9.10;3.15;;;10.20;99.90;;;;;;4967830;28;20133;-87
2021/04/05 09:14:11;;;;;;;12.23;3.72;;;10.20;99.90;;;;;;4961265;28;20051;-87
2021/04/05 09:17:15;;;;;;;11.23;3.75;;;10.20;99.90;;;;;;4956378;28;20055;-88
2021/04/05 09:20:09;;;;;;;8.88;3.83;;;10.30;99.90;;;;;;4943886;28;20062;-87
2021/04/05 09:23:09;;;;;;;13.63;4.05;;;10.30;99.90;;;;;;4946509;28;20103;-87
2021/04/05 09:25:38;;;;;;;16.35;4.60;;;10.30;99.90;;;;;;4989599;28;20045;-87
2021/04/05 09:28:19;;;;;;;14.50;4.65;;;10.30;99.90;;;;;;5033431;28;20140;-87
2021/04/05 09:31:06;;;;;;;12.15;4.32;;;10.20;99.90;;;;;;5017978;28;20361;-87
2021/04/05 09:33:47;;;;;;;12.15;4.75;;;10.20;99.90;;;;;;5019272;28;20045;-87
2021/04/05 09:36:48;;;;;;;12.50;4.75;;;10.10;99.90;;;;;;5021614;28;20503;-87
2021/04/05 09:39:52;;;;;;;14.98;4.38;;;10.10;99.90;;;;;;5021601;28;20069;-86
2021/04/05 09:42:24;;;;;;;15.07;4.85;;;10.10;99.90;;;;;;5024536;28;20045;-87
2021/04/05 09:45:15;;;;;;;15.07;4.70;;;10.00;99.90;;;;;;5015644;28;20049;-87
2021/04/05 09:48:14;;;;;;;15.93;4.75;;;10.00;99.90;;;;;;5023500;28;20448;-87
2021/04/05 09:51:07;;;;;;;12.23;3.80;;;10.10;99.90;;;;;;5020641;28;20486;-87
2021/04/05 09:54:12;;;;;;;12.13;4.30;;;10.20;99.90;;;;;;4950134;28;20042;-88
2021/04/05 09:56:48;;;;;;;12.75;4.28;;;10.30;99.90;;;;;;4964862;28;20050;-87
2021/04/05 09:59:19;;;;;;;10.27;4.50;;;10.30;99.90;;;;;;4951416;28;20050;-87
2021/04/05 10:01:53;;;;;;;13.32;4.30;;;10.30;99.90;;;;;;4950889;28;20058;-87
2021/04/05 10:04:24;;;;;;;15.00;4.38;;;10.30;99.90;;;;;;4952610;28;20499;-87
2021/04/05 10:06:53;;;;;;;12.90;4.05;;;10.40;99.90;;;;;;4955091;28;20141;-87
2021/04/05 10:09:29;;;;;;;9.13;3.60;;;10.40;99.90;;;;;;4970313;28;20052;-87
2021/04/05 10:11:59;;;;;;;15.10;4.10;;;10.40;99.90;;;;;;4959585;28;20042;-86
2021/04/05 10:14:27;;;;;;;16.00;4.18;;;10.30;99.90;;;;;;4953860;28;20146;-87
2021/04/05 10:16:55;;;;;;;13.52;4.15;;;10.40;99.90;;;;;;4960850;28;20050;-87
2021/04/05 10:19:34;;;;;;;15.75;4.32;;;10.40;99.90;;;;;;4959617;28;20051;-86
2021/04/05 10:22:04;;;;;;;12.35;4.57;;;10.40;99.90;;;;;;4984260;28;20407;-86
2021/04/05 10:24:33;;;;;;;16.40;4.28;;;10.40;99.90;;;;;;4976470;28;20089;-87
2021/04/05 10:27:05;;;;;;;12.18;4.40;;;10.50;99.90;;;;;;4968535;28;20046;-87
2021/04/05 10:29:34;;;;;;;11.75;4.53;;;10.60;99.90;;;;;;4971257;28;20118;-87
2021/04/05 10:32:04;;;;;;;11.98;4.35;;;10.60;99.90;;;;;;5043778;28;20045;-88
2021/04/05 10:34:34;;;;;;;12.90;4.28;;;10.50;99.90;;;;;;5034029;28;20108;-87
2021/04/05 10:37:24;;;;;;;12.55;4.50;;;10.60;99.90;;;;;;5032627;28;20037;-88
2021/04/05 10:39:53;;;;;;;16.50;4.72;;;10.60;99.90;;;;;;5031781;28;20045;-86
2021/04/05 10:42:26;;;;;;;15.82;4.75;;;10.70;99.90;;;;;;5032807;28;20490;-86
2021/04/05 10:45:09;;;;;;;10.43;3.63;;;10.70;99.90;;;;;;5028618;28;20428;-86
2021/04/05 10:48:06;;;;;;;8.15;3.30;;;10.90;99.90;;;;;;5048247;28;20394;-86
2021/04/05 10:50:38;;;;;;;15.93;3.80;;;11.00;99.90;;;;;;5032274;28;20074;-88
2021/04/05 10:53:11;;;;;;;15.95;3.50;;;11.10;99.90;;;;;;5031413;28;20056;-87
2021/04/05 10:55:44;;;;;;;11.55;3.50;;;11.20;99.90;;;;;;5032232;28;20041;-88
2021/04/05 10:58:28;;;;;;;14.48;3.10;;;11.10;99.90;;;;;;5031822;28;20044;-86
2021/04/05 11:00:58;;;;;;;11.40;3.50;;;11.20;99.90;;;;;;5024245;28;20049;-86
2021/04/05 11:03:28;;;;;;;15.00;3.80;;;11.30;99.90;;;;;;5033030;28;20172;-87
2021/04/05 11:06:05;;;;;;;12.82;3.58;;;11.40;99.90;;;;;;5031984;28;20063;-88
2021/04/05 11:08:35;;;;;;;10.83;3.53;;;11.40;99.90;;;;;;5030810;28;20497;-85
2021/04/05 11:11:06;;;;;;;11.70;4.28;;;11.60;99.90;;;;;;5030192;28;20307;-86
2021/04/05 11:13:38;;;;;;;9.90;2.78;;;11.70;99.90;;;;;;5032806;28;20052;-85
2021/04/05 11:16:10;;;;;;;11.93;3.08;;;11.80;99.90;;;;;;5049544;28;20044;-84
2021/04/05 11:18:48;;;;;;;7.75;2.75;;;11.80;99.90;;;;;;5028705;28;20057;-85
2021/04/05 11:21:16;;;;;;;8.98;2.88;;;11.80;99.90;;;;;;5027611;28;20132;-85
2021/04/05 11:23:46;;;;;;;16.85;3.58;;;11.80;99.90;;;;;;5046652;28;20057;-86
2021/04/05 11:26:14;;;;;;;12.68;3.55;;;11.80;99.90;;;;;;5032451;28;20106;-87
2021/04/05 11:28:42;;;;;;;6.65;2.58;;;11.80;99.90;;;;;;5027586;28;20279;-87
2021/04/05 11:31:16;;;;;;;10.98;2.90;;;11.90;99.90;;;;;;5024798;28;20037;-85
2021/04/05 11:33:56;;;;;;;8.48;2.58;;;11.90;99.90;;;;;;5031399;28;20047;-84
2021/04/05 11:36:30;;;;;;;12.10;2.92;;;11.80;99.90;;;;;;5028430;28;20044;-86
2021/04/05 11:39:00;;;;;;;7.50;2.42;;;11.80;99.90;;;;;;5031661;28;20060;-84
2021/04/05 11:41:29;;;;;;;9.73;3.05;;;11.80;99.90;;;;;;5027994;28;20128;-86
2021/04/05 11:43:59;;;;;;;11.55;2.75;;;11.80;99.90;;;;;;5048276;28;20208;-87
2021/04/05 11:46:38;;;;;;;6.25;2.65;;;11.80;99.90;;;;;;5028379;28;20099;-85
2021/04/05 11:49:11;;;;;;;7.50;2.42;;;11.80;99.90;;;;;;5029849;28;20099;-88
2021/04/05 11:52:07;;;;;;;11.27;2.97;;;11.70;99.90;;;;;;5028923;28;20070;-88
2021/04/05 11:54:45;;;;;;;12.13;2.83;;;11.60;99.90;;;;;;5025086;28;20045;-88
2021/04/05 11:57:21;;;;;;;6.32;1.77;;;11.60;99.90;;;;;;5020072;28;20049;-87
2021/04/05 11:59:51;;;;;;;8.52;2.30;;;11.60;99.90;;;;;;5029558;28;20128;-88
2021/04/05 12:02:33;;;;;;;6.38;2.10;;;11.40;99.90;;;;;;5047587;28;20045;-88
2021/04/05 12:05:08;;;;;;;7.03;1.90;;;11.40;99.90;;;;;;5043466;28;20077;-87
2021/04/05 12:07:52;;;;;;;7.22;1.60;;;11.50;99.90;;;;;;5029945;28;20055;-88
2021/04/05 12:10:26;;;;;;;5.97;1.90;;;11.60;99.90;;;;;;5031223;28;20041;-89
2021/04/05 12:13:06;;;;;;;6.40;1.63;;;11.70;99.90;;;;;;5029517;28;20132;-88
2021/04/05 12:15:35;;;;;;;4.55;1.27;;;11.80;99.90;;;;;;5031184;28;20099;-89
2021/04/05 12:18:02;;;;;;;5.28;1.48;;;11.90;99.90;;;;;;5031568;28;20045;-87
2021/04/05 12:20:31;;;;;;;5.28;1.45;;;11.90;99.90;;;;;;5029556;28;20037;-88
2021/04/05 12:23:02;;;;;;;7.32;2.00;;;11.90;99.90;;;;;;5030872;28;20059;-88
2021/04/05 12:25:37;;;;;;;8.45;1.90;;;11.80;99.90;;;;;;5030952;28;20045;-88
2021/04/05 12:28:07;;;;;;;5.38;2.05;;;11.80;99.90;;;;;;5030253;28;20443;-89
2021/04/05 12:30:36;;;;;;;5.75;1.45;;;11.90;99.90;;;;;;5035176;28;20045;-89
2021/04/05 12:33:05;;;;;;;4.30;1.58;;;12.00;99.90;;;;;;5028974;28;20047;-89
2021/04/05 12:35:56;;;;;;;7.15;1.30;;;12.10;99.90;;;;;;5031460;28;20502;-89
2021/04/05 12:38:28;;;;;;;3.95;1.40;;;12.10;99.90;;;;;;5028972;28;20356;-90
2021/04/05 12:40:56;;;;;;;6.05;1.60;;;12.30;99.90;;;;;;5038438;28;20052;-89
2021/04/05 12:43:25;;;;;;;3.83;0.95;;;12.40;99.90;;;;;;5028674;28;20053;-90
2021/04/05 12:45:54;;;;;;;5.03;1.30;;;12.30;99.90;;;;;;5030556;28;20045;-89
2021/04/05 12:48:33;;;;;;;5.05;1.30;;;12.30;99.90;;;;;;5031404;28;20077;-88
2021/04/05 12:51:06;;;;;;;3.58;1.30;;;12.30;99.90;;;;;;5030429;28;20102;-89
2021/04/05 12:53:35;;;;;;;4.32;0.90;;;12.30;99.90;;;;;;5027565;28;20112;-89
2021/04/05 12:56:04;;;;;;;5.95;1.30;;;12.30;99.90;;;;;;5028663;28;20069;-89
2021/04/05 12:58:36;;;;;;;3.67;0.70;;;12.40;99.90;;;;;;5032404;28;20045;-89
2021/04/05 13:01:05;;;;;;;3.85;0.77;;;12.40;99.40;;;;;;5019616;28;20049;-89
2021/04/05 13:03:36;;;;;;;2.83;0.80;;;12.40;99.80;;;;;;5029836;28;20459;-89
2021/04/05 13:06:08;;;;;;;5.03;0.90;;;12.50;99.90;;;;;;5029047;28;20533;-88
2021/04/05 13:09:12;;;;;;;3.72;1.08;;;12.70;99.90;;;;;;5026230;28;20095;-90
2021/04/05 13:11:43;;;;;;;3.60;1.27;;;12.80;99.70;;;;;;5018843;28;20498;-84
2021/04/05 13:14:21;;;;;;;2.72;0.98;;;12.70;99.80;;;;;;5048471;28;20049;-89
2021/04/05 13:17:10;;;;;;;3.40;1.20;;;12.70;99.50;;;;;;5048590;28;20141;-91
2021/04/05 13:19:42;;;;;;;4.78;1.00;;;12.60;99.00;;;;;;5049424;28;20368;-88
2021/04/05 13:22:16;;;;;;;5.22;1.30;;;12.60;99.10;;;;;;5030223;28;20146;-89
2021/04/05 13:24:58;;;;;;;7.53;1.15;;;12.60;99.00;;;;;;5028051;28;20052;-90
2021/04/05 13:27:27;;;;;;;4.60;1.13;;;12.60;99.10;;;;;;5029759;28;20501;-87